Hauptseite
METAR-TAF:

METAR-TAF

Flughäfen :

Militärflugplatz Chièvres

Chièvres, Belgien

Breite: 50-34N, Länge: 003-50E, Höhe: 60 m

Beobachtung

Neuester Wetterbericht von vor 38 Minuten, um 10:55 UTC
Wind 16 kt aus Südwest
Temperatur 22°C
Luftfeuchtigkeit 57%
Luftdruck 1018 hPa
Sichtweite 10 km oder mehr

METAR: EBCV 191055Z AUTO 22016KT 9999 NCD 22/13 Q1018 BLU

Zeit: 13:33 (11:33 UTC)

Prognose

Neuester Wetterbericht von vor 2 Stunden und 52 Minuten, um 08:41 UTC
Gültige Prognose vom 19 um 10 UTC bis 19 um 19 UTC
Wind 10 kt aus Südwest
Sichtweite 10 km oder mehr
Leicht bewölkt in der Höhe von 2000 ft
Aufgelockert bewölkt in der Höhe von 16000 ft
Zeitweise
vom 19 um 10 UTC bis 19 um 16 UTC
Wind 12 kt aus Südwest, Böen bis zu 22 kt

TAF: EBCV 190841Z 1910/1919 23010KT 9999 FEW020 SCT160 TEMPO 1910/1916 23012G22KT BY EBWM

Wetterbeobachtungen und Prognosen von mehr als 4000 Flughäfen (METAR und TAF Bericht).

Die verfügbaren Stationen werden durch gelbe und rote Markierungen auf der Karte dargestellt.

Führen Sie die Maus auf sie, um den Namen der Station zu sehen.

Darauf klicken, um die Beobachtung von Wetterbeobachtungen und Prognosen zu sehen.

Um die Karte zu ändern : klicken Sie auf den grünen Tasten mit einem schwarzen Kreuz Zum Vergrößern, auf den grünen Button mit einem Gedankenstrich zu verkleinern, oder auf die grünen Pfeile für benachbarte Karten.


METAR-TAF: